sensor_id;sensor_type;location;lat;lon;timestamp;P1;durP1;ratioP1;P2;durP2;ratioP2
142;SDS011;63667;49.046;8.468;2023-08-17T00:00:27;8.63;;;4.80;;
142;SDS011;63667;49.046;8.468;2023-08-17T00:02:54;5.90;;;4.90;;
142;SDS011;63667;49.046;8.468;2023-08-17T00:05:21;6.80;;;5.07;;
142;SDS011;63667;49.046;8.468;2023-08-17T00:07:49;6.60;;;4.70;;
142;SDS011;63667;49.046;8.468;2023-08-17T00:10:16;9.00;;;5.00;;
142;SDS011;63667;49.046;8.468;2023-08-17T00:12:43;7.57;;;4.13;;
142;SDS011;63667;49.046;8.468;2023-08-17T00:15:10;8.60;;;4.80;;
142;SDS011;63667;49.046;8.468;2023-08-17T00:17:37;7.10;;;4.20;;
142;SDS011;63667;49.046;8.468;2023-08-17T00:20:05;9.97;;;5.13;;
142;SDS011;63667;49.046;8.468;2023-08-17T00:22:35;6.67;;;4.73;;
142;SDS011;63667;49.046;8.468;2023-08-17T00:25:02;6.83;;;4.80;;
142;SDS011;63667;49.046;8.468;2023-08-17T00:27:33;7.50;;;4.43;;
142;SDS011;63667;49.046;8.468;2023-08-17T00:30:00;10.57;;;5.10;;
142;SDS011;63667;49.046;8.468;2023-08-17T00:32:28;10.80;;;4.47;;
142;SDS011;63667;49.046;8.468;2023-08-17T00:34:55;7.13;;;4.33;;
142;SDS011;63667;49.046;8.468;2023-08-17T00:37:22;5.20;;;4.43;;
142;SDS011;63667;49.046;8.468;2023-08-17T00:39:49;10.40;;;4.60;;
142;SDS011;63667;49.046;8.468;2023-08-17T00:42:17;9.33;;;4.53;;
142;SDS011;63667;49.046;8.468;2023-08-17T00:44:44;7.03;;;5.13;;
142;SDS011;63667;49.046;8.468;2023-08-17T00:47:11;6.27;;;4.60;;
142;SDS011;63667;49.046;8.468;2023-08-17T00:49:38;10.80;;;4.63;;
142;SDS011;63667;49.046;8.468;2023-08-17T00:52:05;12.07;;;4.70;;
142;SDS011;63667;49.046;8.468;2023-08-17T00:54:32;9.67;;;4.90;;
142;SDS011;63667;49.046;8.468;2023-08-17T00:57:00;8.73;;;4.50;;
142;SDS011;63667;49.046;8.468;2023-08-17T00:59:29;16.83;;;4.83;;
142;SDS011;63667;49.046;8.468;2023-08-17T01:01:56;7.37;;;5.00;;
142;SDS011;63667;49.046;8.468;2023-08-17T01:04:24;9.33;;;4.67;;
142;SDS011;63667;49.046;8.468;2023-08-17T01:06:51;9.70;;;5.13;;
142;SDS011;63667;49.046;8.468;2023-08-17T01:09:18;6.20;;;5.10;;
142;SDS011;63667;49.046;8.468;2023-08-17T01:11:53;8.60;;;4.93;;
142;SDS011;63667;49.046;8.468;2023-08-17T01:16:50;5.43;;;4.70;;
142;SDS011;63667;49.046;8.468;2023-08-17T01:19:25;13.10;;;5.50;;
142;SDS011;63667;49.046;8.468;2023-08-17T01:22:05;9.30;;;5.20;;
142;SDS011;63667;49.046;8.468;2023-08-17T01:24:35;5.60;;;4.27;;
142;SDS011;63667;49.046;8.468;2023-08-17T01:27:03;11.97;;;5.70;;
142;SDS011;63667;49.046;8.468;2023-08-17T01:29:30;10.20;;;4.73;;
142;SDS011;63667;49.046;8.468;2023-08-17T01:34:25;9.57;;;4.63;;
142;SDS011;63667;49.046;8.468;2023-08-17T01:36:53;6.70;;;4.93;;
142;SDS011;63667;49.046;8.468;2023-08-17T01:39:23;9.07;;;5.50;;
142;SDS011;63667;49.046;8.468;2023-08-17T01:41:51;12.03;;;5.30;;
142;SDS011;63667;49.046;8.468;2023-08-17T01:44:20;9.33;;;4.93;;
142;SDS011;63667;49.046;8.468;2023-08-17T01:46:48;7.67;;;5.10;;
142;SDS011;63667;49.046;8.468;2023-08-17T01:49:15;8.83;;;5.30;;
142;SDS011;63667;49.046;8.468;2023-08-17T01:51:42;6.93;;;5.10;;
142;SDS011;63667;49.046;8.468;2023-08-17T01:54:10;8.30;;;5.20;;
142;SDS011;63667;49.046;8.468;2023-08-17T01:56:37;7.77;;;4.87;;
142;SDS011;63667;49.046;8.468;2023-08-17T01:59:04;8.93;;;5.60;;
142;SDS011;63667;49.046;8.468;2023-08-17T02:01:32;7.90;;;4.53;;
142;SDS011;63667;49.046;8.468;2023-08-17T02:03:59;18.20;;;6.40;;
142;SDS011;63667;49.046;8.468;2023-08-17T02:06:28;6.63;;;4.70;;
142;SDS011;63667;49.046;8.468;2023-08-17T02:08:55;10.20;;;5.53;;
142;SDS011;63667;49.046;8.468;2023-08-17T02:11:23;5.60;;;4.23;;
142;SDS011;63667;49.046;8.468;2023-08-17T02:13:50;9.57;;;5.10;;
142;SDS011;63667;49.046;8.468;2023-08-17T02:16:17;6.77;;;4.93;;
142;SDS011;63667;49.046;8.468;2023-08-17T02:18:44;10.93;;;5.30;;
142;SDS011;63667;49.046;8.468;2023-08-17T02:21:11;13.10;;;5.77;;
142;SDS011;63667;49.046;8.468;2023-08-17T02:23:37;8.93;;;5.33;;
142;SDS011;63667;49.046;8.468;2023-08-17T02:26:04;9.20;;;5.00;;
142;SDS011;63667;49.046;8.468;2023-08-17T02:28:32;10.63;;;5.60;;
142;SDS011;63667;49.046;8.468;2023-08-17T02:30:59;14.83;;;5.37;;
142;SDS011;63667;49.046;8.468;2023-08-17T02:33:26;10.80;;;5.53;;
142;SDS011;63667;49.046;8.468;2023-08-17T02:35:54;8.40;;;5.50;;
142;SDS011;63667;49.046;8.468;2023-08-17T02:38:21;9.27;;;5.80;;
142;SDS011;63667;49.046;8.468;2023-08-17T02:40:48;13.70;;;5.70;;
142;SDS011;63667;49.046;8.468;2023-08-17T02:43:16;14.67;;;5.90;;
142;SDS011;63667;49.046;8.468;2023-08-17T02:45:44;14.30;;;5.27;;
142;SDS011;63667;49.046;8.468;2023-08-17T02:48:11;6.53;;;5.13;;
142;SDS011;63667;49.046;8.468;2023-08-17T02:50:38;11.00;;;4.97;;
142;SDS011;63667;49.046;8.468;2023-08-17T02:53:06;6.67;;;5.00;;
142;SDS011;63667;49.046;8.468;2023-08-17T02:55:33;7.70;;;4.97;;
142;SDS011;63667;49.046;8.468;2023-08-17T02:58:00;12.43;;;5.40;;
142;SDS011;63667;49.046;8.468;2023-08-17T03:00:28;13.17;;;5.70;;
142;SDS011;63667;49.046;8.468;2023-08-17T03:02:55;13.47;;;5.60;;
142;SDS011;63667;49.046;8.468;2023-08-17T03:05:23;7.93;;;5.73;;
142;SDS011;63667;49.046;8.468;2023-08-17T03:07:51;9.60;;;5.77;;
142;SDS011;63667;49.046;8.468;2023-08-17T03:10:18;9.47;;;5.03;;
142;SDS011;63667;49.046;8.468;2023-08-17T03:12:45;5.70;;;4.93;;
142;SDS011;63667;49.046;8.468;2023-08-17T03:15:12;12.20;;;5.83;;
142;SDS011;63667;49.046;8.468;2023-08-17T03:17:39;14.63;;;5.37;;
142;SDS011;63667;49.046;8.468;2023-08-17T03:20:07;7.77;;;5.37;;
142;SDS011;63667;49.046;8.468;2023-08-17T03:22:36;8.43;;;6.00;;
142;SDS011;63667;49.046;8.468;2023-08-17T03:25:03;9.67;;;5.83;;
142;SDS011;63667;49.046;8.468;2023-08-17T03:27:31;7.70;;;5.00;;
142;SDS011;63667;49.046;8.468;2023-08-17T03:29:59;8.83;;;5.00;;
142;SDS011;63667;49.046;8.468;2023-08-17T03:32:26;10.63;;;5.10;;
142;SDS011;63667;49.046;8.468;2023-08-17T03:34:53;12.53;;;4.57;;
142;SDS011;63667;49.046;8.468;2023-08-17T03:37:20;15.87;;;5.07;;
142;SDS011;63667;49.046;8.468;2023-08-17T03:39:47;7.87;;;4.43;;
142;SDS011;63667;49.046;8.468;2023-08-17T03:42:14;9.33;;;5.30;;
142;SDS011;63667;49.046;8.468;2023-08-17T03:44:41;8.73;;;5.40;;
142;SDS011;63667;49.046;8.468;2023-08-17T03:47:09;8.20;;;4.90;;
142;SDS011;63667;49.046;8.468;2023-08-17T03:49:36;8.30;;;5.70;;
142;SDS011;63667;49.046;8.468;2023-08-17T03:52:03;10.83;;;6.00;;
142;SDS011;63667;49.046;8.468;2023-08-17T03:54:31;11.27;;;5.70;;
142;SDS011;63667;49.046;8.468;2023-08-17T03:56:58;8.90;;;5.40;;
142;SDS011;63667;49.046;8.468;2023-08-17T03:59:25;12.60;;;6.30;;
142;SDS011;63667;49.046;8.468;2023-08-17T04:01:53;12.13;;;6.20;;
142;SDS011;63667;49.046;8.468;2023-08-17T04:04:20;8.30;;;5.10;;
142;SDS011;63667;49.046;8.468;2023-08-17T04:06:47;8.77;;;5.30;;
142;SDS011;63667;49.046;8.468;2023-08-17T04:09:15;7.30;;;4.80;;
142;SDS011;63667;49.046;8.468;2023-08-17T04:11:42;8.17;;;5.57;;
142;SDS011;63667;49.046;8.468;2023-08-17T04:14:09;12.73;;;5.70;;
142;SDS011;63667;49.046;8.468;2023-08-17T04:16:38;10.07;;;6.30;;
142;SDS011;63667;49.046;8.468;2023-08-17T04:19:04;12.63;;;6.70;;
142;SDS011;63667;49.046;8.468;2023-08-17T04:21:32;9.37;;;5.53;;
142;SDS011;63667;49.046;8.468;2023-08-17T04:23:59;14.03;;;6.10;;
142;SDS011;63667;49.046;8.468;2023-08-17T04:26:27;12.27;;;5.97;;
142;SDS011;63667;49.046;8.468;2023-08-17T04:28:54;10.03;;;5.80;;
142;SDS011;63667;49.046;8.468;2023-08-17T04:31:21;17.20;;;6.90;;
142;SDS011;63667;49.046;8.468;2023-08-17T04:33:48;11.93;;;6.40;;
142;SDS011;63667;49.046;8.468;2023-08-17T04:36:15;12.57;;;6.03;;
142;SDS011;63667;49.046;8.468;2023-08-17T04:38:42;17.37;;;6.90;;
142;SDS011;63667;49.046;8.468;2023-08-17T04:41:10;13.43;;;7.20;;
142;SDS011;63667;49.046;8.468;2023-08-17T04:43:37;11.87;;;7.10;;
142;SDS011;63667;49.046;8.468;2023-08-17T04:46:04;12.00;;;6.80;;
142;SDS011;63667;49.046;8.468;2023-08-17T04:48:32;22.07;;;7.27;;
142;SDS011;63667;49.046;8.468;2023-08-17T04:50:59;10.83;;;6.80;;
142;SDS011;63667;49.046;8.468;2023-08-17T04:53:26;10.53;;;7.03;;
142;SDS011;63667;49.046;8.468;2023-08-17T04:55:53;8.33;;;5.83;;
142;SDS011;63667;49.046;8.468;2023-08-17T04:58:20;10.50;;;6.37;;
142;SDS011;63667;49.046;8.468;2023-08-17T05:00:48;9.93;;;6.17;;
142;SDS011;63667;49.046;8.468;2023-08-17T05:03:15;12.90;;;6.73;;
142;SDS011;63667;49.046;8.468;2023-08-17T05:05:42;10.60;;;6.33;;
142;SDS011;63667;49.046;8.468;2023-08-17T05:08:10;10.77;;;6.93;;
142;SDS011;63667;49.046;8.468;2023-08-17T05:10:37;13.90;;;6.80;;
142;SDS011;63667;49.046;8.468;2023-08-17T05:13:03;15.27;;;7.03;;
142;SDS011;63667;49.046;8.468;2023-08-17T05:15:30;17.10;;;7.50;;
142;SDS011;63667;49.046;8.468;2023-08-17T05:17:57;13.73;;;6.97;;
142;SDS011;63667;49.046;8.468;2023-08-17T05:20:25;9.63;;;6.93;;
142;SDS011;63667;49.046;8.468;2023-08-17T05:22:52;14.30;;;6.70;;
142;SDS011;63667;49.046;8.468;2023-08-17T05:25:19;13.90;;;7.23;;
142;SDS011;63667;49.046;8.468;2023-08-17T05:27:47;22.30;;;8.03;;
142;SDS011;63667;49.046;8.468;2023-08-17T05:30:15;14.70;;;7.40;;
142;SDS011;63667;49.046;8.468;2023-08-17T05:32:43;12.23;;;7.83;;
142;SDS011;63667;49.046;8.468;2023-08-17T05:35:11;12.43;;;7.50;;
142;SDS011;63667;49.046;8.468;2023-08-17T05:37:37;16.03;;;8.23;;
142;SDS011;63667;49.046;8.468;2023-08-17T05:40:04;12.53;;;7.80;;
142;SDS011;63667;49.046;8.468;2023-08-17T05:42:34;15.10;;;7.70;;
142;SDS011;63667;49.046;8.468;2023-08-17T05:45:01;12.00;;;7.30;;
142;SDS011;63667;49.046;8.468;2023-08-17T05:47:29;11.47;;;7.50;;
142;SDS011;63667;49.046;8.468;2023-08-17T05:49:56;14.87;;;7.20;;
142;SDS011;63667;49.046;8.468;2023-08-17T05:52:23;16.90;;;8.23;;
142;SDS011;63667;49.046;8.468;2023-08-17T05:54:50;20.73;;;7.97;;
142;SDS011;63667;49.046;8.468;2023-08-17T05:57:16;14.77;;;8.13;;
142;SDS011;63667;49.046;8.468;2023-08-17T05:59:44;13.10;;;7.77;;
142;SDS011;63667;49.046;8.468;2023-08-17T06:02:11;14.60;;;7.80;;
142;SDS011;63667;49.046;8.468;2023-08-17T06:04:38;15.77;;;8.00;;
142;SDS011;63667;49.046;8.468;2023-08-17T06:07:06;15.10;;;8.67;;
142;SDS011;63667;49.046;8.468;2023-08-17T06:09:34;18.00;;;9.03;;
142;SDS011;63667;49.046;8.468;2023-08-17T06:12:01;15.73;;;8.00;;
142;SDS011;63667;49.046;8.468;2023-08-17T06:14:28;11.53;;;7.97;;
142;SDS011;63667;49.046;8.468;2023-08-17T06:16:55;11.10;;;7.40;;
142;SDS011;63667;49.046;8.468;2023-08-17T06:19:23;12.47;;;7.20;;
142;SDS011;63667;49.046;8.468;2023-08-17T06:21:50;9.70;;;6.77;;
142;SDS011;63667;49.046;8.468;2023-08-17T06:24:17;13.80;;;7.13;;
142;SDS011;63667;49.046;8.468;2023-08-17T06:26:44;11.10;;;6.83;;
142;SDS011;63667;49.046;8.468;2023-08-17T06:29:12;13.67;;;6.87;;
142;SDS011;63667;49.046;8.468;2023-08-17T06:31:39;12.47;;;6.60;;
142;SDS011;63667;49.046;8.468;2023-08-17T06:34:05;9.90;;;6.47;;
142;SDS011;63667;49.046;8.468;2023-08-17T06:36:33;10.90;;;6.23;;
142;SDS011;63667;49.046;8.468;2023-08-17T06:39:00;9.80;;;6.20;;
142;SDS011;63667;49.046;8.468;2023-08-17T06:41:28;13.60;;;6.50;;
142;SDS011;63667;49.046;8.468;2023-08-17T06:43:55;11.23;;;7.13;;
142;SDS011;63667;49.046;8.468;2023-08-17T06:46:23;9.90;;;6.40;;
142;SDS011;63667;49.046;8.468;2023-08-17T06:48:50;13.73;;;6.43;;
142;SDS011;63667;49.046;8.468;2023-08-17T06:51:18;16.83;;;6.80;;
142;SDS011;63667;49.046;8.468;2023-08-17T06:53:45;13.10;;;6.30;;
142;SDS011;63667;49.046;8.468;2023-08-17T06:56:12;10.47;;;5.93;;
142;SDS011;63667;49.046;8.468;2023-08-17T06:58:39;22.40;;;7.60;;
142;SDS011;63667;49.046;8.468;2023-08-17T07:01:06;15.70;;;6.40;;
142;SDS011;63667;49.046;8.468;2023-08-17T07:03:34;11.80;;;7.00;;
142;SDS011;63667;49.046;8.468;2023-08-17T07:06:02;9.30;;;6.20;;
142;SDS011;63667;49.046;8.468;2023-08-17T07:08:30;16.10;;;6.80;;
142;SDS011;63667;49.046;8.468;2023-08-17T07:10:58;10.03;;;6.50;;
142;SDS011;63667;49.046;8.468;2023-08-17T07:13:26;14.33;;;6.70;;
142;SDS011;63667;49.046;8.468;2023-08-17T07:15:53;9.83;;;6.70;;
142;SDS011;63667;49.046;8.468;2023-08-17T07:18:20;17.50;;;8.07;;
142;SDS011;63667;49.046;8.468;2023-08-17T07:20:47;12.87;;;6.33;;
142;SDS011;63667;49.046;8.468;2023-08-17T07:23:15;14.77;;;6.60;;
142;SDS011;63667;49.046;8.468;2023-08-17T07:25:42;15.17;;;6.47;;
142;SDS011;63667;49.046;8.468;2023-08-17T07:28:10;9.60;;;5.40;;
142;SDS011;63667;49.046;8.468;2023-08-17T07:30:37;10.00;;;6.20;;
142;SDS011;63667;49.046;8.468;2023-08-17T07:33:04;9.63;;;5.87;;
142;SDS011;63667;49.046;8.468;2023-08-17T07:35:32;15.80;;;7.40;;
142;SDS011;63667;49.046;8.468;2023-08-17T07:37:59;9.53;;;6.80;;
142;SDS011;63667;49.046;8.468;2023-08-17T07:40:26;16.33;;;6.80;;
142;SDS011;63667;49.046;8.468;2023-08-17T07:42:53;11.83;;;6.87;;
142;SDS011;63667;49.046;8.468;2023-08-17T07:45:20;11.80;;;6.80;;
142;SDS011;63667;49.046;8.468;2023-08-17T07:47:47;8.13;;;6.00;;
142;SDS011;63667;49.046;8.468;2023-08-17T07:50:14;8.40;;;6.10;;
142;SDS011;63667;49.046;8.468;2023-08-17T07:52:42;11.30;;;6.73;;
142;SDS011;63667;49.046;8.468;2023-08-17T07:55:09;11.90;;;6.90;;
142;SDS011;63667;49.046;8.468;2023-08-17T07:57:37;12.50;;;6.53;;
142;SDS011;63667;49.046;8.468;2023-08-17T08:00:04;12.40;;;8.23;;
142;SDS011;63667;49.046;8.468;2023-08-17T08:02:33;10.00;;;6.90;;
142;SDS011;63667;49.046;8.468;2023-08-17T08:05:01;9.30;;;7.23;;
142;SDS011;63667;49.046;8.468;2023-08-17T08:07:28;14.53;;;8.97;;
142;SDS011;63667;49.046;8.468;2023-08-17T08:09:55;18.40;;;9.00;;
142;SDS011;63667;49.046;8.468;2023-08-17T08:12:23;15.93;;;8.63;;
142;SDS011;63667;49.046;8.468;2023-08-17T08:14:50;19.43;;;8.40;;
142;SDS011;63667;49.046;8.468;2023-08-17T08:17:17;18.57;;;9.03;;
142;SDS011;63667;49.046;8.468;2023-08-17T08:19:45;12.90;;;8.60;;
142;SDS011;63667;49.046;8.468;2023-08-17T08:22:12;14.63;;;8.63;;
142;SDS011;63667;49.046;8.468;2023-08-17T08:24:39;15.17;;;8.20;;
142;SDS011;63667;49.046;8.468;2023-08-17T08:27:07;26.40;;;10.10;;
142;SDS011;63667;49.046;8.468;2023-08-17T08:29:34;14.23;;;8.20;;
142;SDS011;63667;49.046;8.468;2023-08-17T08:32:01;18.10;;;9.40;;
142;SDS011;63667;49.046;8.468;2023-08-17T08:34:29;17.27;;;9.00;;
142;SDS011;63667;49.046;8.468;2023-08-17T08:36:56;13.97;;;8.87;;
142;SDS011;63667;49.046;8.468;2023-08-17T08:39:25;14.77;;;8.27;;
142;SDS011;63667;49.046;8.468;2023-08-17T08:41:53;13.13;;;8.70;;
142;SDS011;63667;49.046;8.468;2023-08-17T08:44:20;13.33;;;8.47;;
142;SDS011;63667;49.046;8.468;2023-08-17T08:46:48;12.67;;;8.97;;
142;SDS011;63667;49.046;8.468;2023-08-17T08:49:16;16.70;;;9.13;;
142;SDS011;63667;49.046;8.468;2023-08-17T08:51:46;15.87;;;8.57;;
142;SDS011;63667;49.046;8.468;2023-08-17T08:54:17;14.27;;;8.93;;
142;SDS011;63667;49.046;8.468;2023-08-17T08:56:44;13.00;;;8.40;;
142;SDS011;63667;49.046;8.468;2023-08-17T08:59:12;16.10;;;8.60;;
142;SDS011;63667;49.046;8.468;2023-08-17T09:01:40;14.83;;;9.17;;
142;SDS011;63667;49.046;8.468;2023-08-17T09:04:08;17.57;;;9.17;;
142;SDS011;63667;49.046;8.468;2023-08-17T09:06:35;13.20;;;7.93;;
142;SDS011;63667;49.046;8.468;2023-08-17T09:09:02;11.03;;;7.60;;
142;SDS011;63667;49.046;8.468;2023-08-17T09:11:30;14.10;;;8.60;;
142;SDS011;63667;49.046;8.468;2023-08-17T09:13:57;12.63;;;8.07;;
142;SDS011;63667;49.046;8.468;2023-08-17T09:16:24;16.30;;;8.37;;
142;SDS011;63667;49.046;8.468;2023-08-17T09:18:52;16.30;;;9.10;;
142;SDS011;63667;49.046;8.468;2023-08-17T09:21:20;11.83;;;8.40;;
142;SDS011;63667;49.046;8.468;2023-08-17T09:23:52;14.40;;;8.10;;
142;SDS011;63667;49.046;8.468;2023-08-17T09:26:20;11.17;;;7.97;;
142;SDS011;63667;49.046;8.468;2023-08-17T09:28:50;13.20;;;8.37;;
142;SDS011;63667;49.046;8.468;2023-08-17T09:31:20;12.17;;;8.70;;
142;SDS011;63667;49.046;8.468;2023-08-17T09:33:50;14.00;;;8.57;;
142;SDS011;63667;49.046;8.468;2023-08-17T09:36:21;10.47;;;7.47;;
142;SDS011;63667;49.046;8.468;2023-08-17T09:38:49;17.80;;;9.17;;
142;SDS011;63667;49.046;8.468;2023-08-17T09:41:19;12.63;;;8.50;;
142;SDS011;63667;49.046;8.468;2023-08-17T09:43:46;12.33;;;7.90;;
142;SDS011;63667;49.046;8.468;2023-08-17T09:46:14;25.53;;;8.80;;
142;SDS011;63667;49.046;8.468;2023-08-17T09:48:44;13.40;;;8.77;;
142;SDS011;63667;49.046;8.468;2023-08-17T09:51:14;11.53;;;8.83;;
142;SDS011;63667;49.046;8.468;2023-08-17T09:53:42;11.80;;;8.13;;
142;SDS011;63667;49.046;8.468;2023-08-17T09:56:09;14.67;;;7.93;;
142;SDS011;63667;49.046;8.468;2023-08-17T09:58:38;12.63;;;8.07;;
142;SDS011;63667;49.046;8.468;2023-08-17T10:01:05;9.27;;;7.40;;
142;SDS011;63667;49.046;8.468;2023-08-17T10:03:32;10.30;;;7.90;;
142;SDS011;63667;49.046;8.468;2023-08-17T10:06:09;11.93;;;8.40;;
142;SDS011;63667;49.046;8.468;2023-08-17T10:08:39;8.70;;;6.73;;
142;SDS011;63667;49.046;8.468;2023-08-17T10:11:09;8.40;;;7.40;;
142;SDS011;63667;49.046;8.468;2023-08-17T10:13:39;12.50;;;7.90;;
142;SDS011;63667;49.046;8.468;2023-08-17T10:18:45;17.23;;;8.77;;
142;SDS011;63667;49.046;8.468;2023-08-17T10:21:18;12.83;;;7.47;;
142;SDS011;63667;49.046;8.468;2023-08-17T10:23:48;10.90;;;8.50;;
142;SDS011;63667;49.046;8.468;2023-08-17T10:26:15;10.73;;;8.20;;
142;SDS011;63667;49.046;8.468;2023-08-17T10:28:44;11.00;;;8.73;;
142;SDS011;63667;49.046;8.468;2023-08-17T10:31:12;15.73;;;9.33;;
142;SDS011;63667;49.046;8.468;2023-08-17T10:33:39;10.47;;;7.90;;
142;SDS011;63667;49.046;8.468;2023-08-17T10:36:10;12.87;;;8.53;;
142;SDS011;63667;49.046;8.468;2023-08-17T10:38:38;9.20;;;7.77;;
142;SDS011;63667;49.046;8.468;2023-08-17T10:41:11;10.43;;;8.20;;
142;SDS011;63667;49.046;8.468;2023-08-17T10:43:54;7.87;;;7.50;;
142;SDS011;63667;49.046;8.468;2023-08-17T10:46:33;10.87;;;8.60;;
142;SDS011;63667;49.046;8.468;2023-08-17T10:49:04;10.83;;;8.67;;
142;SDS011;63667;49.046;8.468;2023-08-17T10:51:33;14.93;;;8.90;;
142;SDS011;63667;49.046;8.468;2023-08-17T10:54:02;9.40;;;8.60;;
142;SDS011;63667;49.046;8.468;2023-08-17T10:56:29;16.67;;;8.83;;
142;SDS011;63667;49.046;8.468;2023-08-17T10:59:00;10.47;;;8.80;;
142;SDS011;63667;49.046;8.468;2023-08-17T11:01:31;15.57;;;8.90;;
142;SDS011;63667;49.046;8.468;2023-08-17T11:07:01;11.40;;;8.80;;
142;SDS011;63667;49.046;8.468;2023-08-17T11:09:29;11.33;;;8.10;;
142;SDS011;63667;49.046;8.468;2023-08-17T11:11:57;13.03;;;8.67;;
142;SDS011;63667;49.046;8.468;2023-08-17T11:14:32;16.07;;;8.70;;
142;SDS011;63667;49.046;8.468;2023-08-17T11:16:58;12.37;;;10.50;;
142;SDS011;63667;49.046;8.468;2023-08-17T11:19:26;10.80;;;8.60;;
142;SDS011;63667;49.046;8.468;2023-08-17T11:21:53;11.63;;;8.00;;
142;SDS011;63667;49.046;8.468;2023-08-17T11:24:21;12.47;;;9.40;;
142;SDS011;63667;49.046;8.468;2023-08-17T11:26:48;11.67;;;8.57;;
142;SDS011;63667;49.046;8.468;2023-08-17T11:29:15;9.13;;;8.57;;
142;SDS011;63667;49.046;8.468;2023-08-17T11:31:43;10.07;;;8.63;;
142;SDS011;63667;49.046;8.468;2023-08-17T11:34:13;12.60;;;9.93;;
142;SDS011;63667;49.046;8.468;2023-08-17T11:36:41;18.13;;;11.63;;
142;SDS011;63667;49.046;8.468;2023-08-17T11:39:08;15.83;;;12.20;;
142;SDS011;63667;49.046;8.468;2023-08-17T11:41:36;18.40;;;12.00;;
142;SDS011;63667;49.046;8.468;2023-08-17T11:44:04;18.27;;;12.90;;
142;SDS011;63667;49.046;8.468;2023-08-17T11:46:32;19.73;;;12.10;;
142;SDS011;63667;49.046;8.468;2023-08-17T11:48:59;19.03;;;12.60;;
142;SDS011;63667;49.046;8.468;2023-08-17T11:51:29;23.53;;;12.60;;
142;SDS011;63667;49.046;8.468;2023-08-17T11:53:59;18.07;;;12.20;;
142;SDS011;63667;49.046;8.468;2023-08-17T11:56:28;18.63;;;12.07;;
142;SDS011;63667;49.046;8.468;2023-08-17T11:58:56;17.50;;;11.57;;
142;SDS011;63667;49.046;8.468;2023-08-17T12:01:23;18.57;;;12.17;;
142;SDS011;63667;49.046;8.468;2023-08-17T12:03:51;18.43;;;12.20;;
142;SDS011;63667;49.046;8.468;2023-08-17T12:06:18;22.77;;;13.00;;
142;SDS011;63667;49.046;8.468;2023-08-17T12:08:45;18.30;;;12.10;;
142;SDS011;63667;49.046;8.468;2023-08-17T12:11:13;27.17;;;12.77;;
142;SDS011;63667;49.046;8.468;2023-08-17T12:13:40;22.23;;;13.10;;
142;SDS011;63667;49.046;8.468;2023-08-17T12:16:13;19.10;;;11.80;;
142;SDS011;63667;49.046;8.468;2023-08-17T12:18:43;22.83;;;12.00;;
142;SDS011;63667;49.046;8.468;2023-08-17T12:21:10;18.53;;;11.77;;
142;SDS011;63667;49.046;8.468;2023-08-17T12:23:38;23.77;;;12.23;;
142;SDS011;63667;49.046;8.468;2023-08-17T12:26:05;18.27;;;12.17;;
142;SDS011;63667;49.046;8.468;2023-08-17T12:28:33;17.97;;;11.10;;
142;SDS011;63667;49.046;8.468;2023-08-17T12:31:01;16.93;;;11.83;;
142;SDS011;63667;49.046;8.468;2023-08-17T12:33:28;15.60;;;10.43;;
142;SDS011;63667;49.046;8.468;2023-08-17T12:35:55;16.33;;;10.83;;
142;SDS011;63667;49.046;8.468;2023-08-17T12:38:23;15.70;;;10.57;;
142;SDS011;63667;49.046;8.468;2023-08-17T12:40:50;14.90;;;10.73;;
142;SDS011;63667;49.046;8.468;2023-08-17T12:43:18;13.77;;;10.73;;
142;SDS011;63667;49.046;8.468;2023-08-17T12:45:45;13.83;;;9.87;;
142;SDS011;63667;49.046;8.468;2023-08-17T12:48:12;16.90;;;11.20;;
142;SDS011;63667;49.046;8.468;2023-08-17T12:50:40;16.23;;;11.70;;
142;SDS011;63667;49.046;8.468;2023-08-17T12:53:07;16.70;;;10.50;;
142;SDS011;63667;49.046;8.468;2023-08-17T12:55:34;15.00;;;11.40;;
142;SDS011;63667;49.046;8.468;2023-08-17T12:58:01;13.40;;;10.43;;
142;SDS011;63667;49.046;8.468;2023-08-17T13:00:29;12.20;;;10.17;;
142;SDS011;63667;49.046;8.468;2023-08-17T13:02:56;17.60;;;10.77;;
142;SDS011;63667;49.046;8.468;2023-08-17T13:05:23;17.13;;;10.87;;
142;SDS011;63667;49.046;8.468;2023-08-17T13:07:50;13.57;;;10.63;;
142;SDS011;63667;49.046;8.468;2023-08-17T13:10:18;13.00;;;10.10;;
142;SDS011;63667;49.046;8.468;2023-08-17T13:12:45;13.80;;;9.80;;
142;SDS011;63667;49.046;8.468;2023-08-17T13:15:13;14.47;;;9.70;;
142;SDS011;63667;49.046;8.468;2023-08-17T13:17:40;12.20;;;9.70;;
142;SDS011;63667;49.046;8.468;2023-08-17T13:20:08;13.90;;;9.67;;
142;SDS011;63667;49.046;8.468;2023-08-17T13:22:36;11.23;;;9.10;;
142;SDS011;63667;49.046;8.468;2023-08-17T13:25:04;12.80;;;9.50;;
142;SDS011;63667;49.046;8.468;2023-08-17T13:27:32;12.23;;;9.40;;
142;SDS011;63667;49.046;8.468;2023-08-17T13:30:00;11.70;;;9.97;;
142;SDS011;63667;49.046;8.468;2023-08-17T13:32:28;13.50;;;10.10;;
142;SDS011;63667;49.046;8.468;2023-08-17T13:34:55;15.33;;;11.80;;
142;SDS011;63667;49.046;8.468;2023-08-17T13:37:23;13.07;;;10.90;;
142;SDS011;63667;49.046;8.468;2023-08-17T13:39:50;14.60;;;10.90;;
142;SDS011;63667;49.046;8.468;2023-08-17T13:42:17;13.17;;;10.70;;
142;SDS011;63667;49.046;8.468;2023-08-17T13:44:44;11.90;;;10.00;;
142;SDS011;63667;49.046;8.468;2023-08-17T13:47:12;14.50;;;10.93;;
142;SDS011;63667;49.046;8.468;2023-08-17T13:49:39;13.80;;;10.57;;
142;SDS011;63667;49.046;8.468;2023-08-17T13:52:06;11.90;;;10.20;;
142;SDS011;63667;49.046;8.468;2023-08-17T13:54:34;14.37;;;10.30;;
142;SDS011;63667;49.046;8.468;2023-08-17T13:57:01;14.33;;;9.90;;
142;SDS011;63667;49.046;8.468;2023-08-17T13:59:33;12.93;;;11.30;;
142;SDS011;63667;49.046;8.468;2023-08-17T14:02:00;13.07;;;10.90;;
142;SDS011;63667;49.046;8.468;2023-08-17T14:04:27;16.43;;;11.30;;
142;SDS011;63667;49.046;8.468;2023-08-17T14:06:55;17.63;;;11.57;;
142;SDS011;63667;49.046;8.468;2023-08-17T14:09:21;18.10;;;10.70;;
142;SDS011;63667;49.046;8.468;2023-08-17T14:11:48;15.60;;;10.50;;
142;SDS011;63667;49.046;8.468;2023-08-17T14:14:16;16.07;;;11.10;;
142;SDS011;63667;49.046;8.468;2023-08-17T14:16:42;14.40;;;10.07;;
142;SDS011;63667;49.046;8.468;2023-08-17T14:19:09;12.60;;;9.83;;
142;SDS011;63667;49.046;8.468;2023-08-17T14:21:36;12.30;;;10.60;;
142;SDS011;63667;49.046;8.468;2023-08-17T14:24:03;11.30;;;10.60;;
142;SDS011;63667;49.046;8.468;2023-08-17T14:26:32;20.47;;;10.47;;
142;SDS011;63667;49.046;8.468;2023-08-17T14:28:59;13.10;;;10.37;;
142;SDS011;63667;49.046;8.468;2023-08-17T14:31:26;15.43;;;10.70;;
142;SDS011;63667;49.046;8.468;2023-08-17T14:33:54;12.57;;;10.70;;
142;SDS011;63667;49.046;8.468;2023-08-17T14:36:20;13.90;;;10.90;;
142;SDS011;63667;49.046;8.468;2023-08-17T14:38:47;13.03;;;10.23;;
142;SDS011;63667;49.046;8.468;2023-08-17T14:41:15;15.70;;;9.43;;
142;SDS011;63667;49.046;8.468;2023-08-17T14:43:42;10.50;;;9.07;;
142;SDS011;63667;49.046;8.468;2023-08-17T14:46:09;10.13;;;9.63;;
142;SDS011;63667;49.046;8.468;2023-08-17T14:48:36;17.03;;;9.43;;
142;SDS011;63667;49.046;8.468;2023-08-17T14:51:03;11.07;;;9.93;;
142;SDS011;63667;49.046;8.468;2023-08-17T14:53:30;10.80;;;9.07;;
142;SDS011;63667;49.046;8.468;2023-08-17T14:55:58;15.43;;;9.70;;
142;SDS011;63667;49.046;8.468;2023-08-17T14:58:25;11.83;;;9.27;;
142;SDS011;63667;49.046;8.468;2023-08-17T15:00:52;15.87;;;10.27;;
142;SDS011;63667;49.046;8.468;2023-08-17T15:03:19;9.85;;;8.13;;
142;SDS011;63667;49.046;8.468;2023-08-17T15:05:46;8.38;;;7.63;;
142;SDS011;63667;49.046;8.468;2023-08-17T15:08:13;11.60;;;8.25;;
142;SDS011;63667;49.046;8.468;2023-08-17T15:10:42;10.65;;;8.30;;
142;SDS011;63667;49.046;8.468;2023-08-17T15:13:09;9.77;;;8.52;;
142;SDS011;63667;49.046;8.468;2023-08-17T15:15:36;13.15;;;9.00;;